Time;durP1;ratioP1;P1;durP2;ratioP2;P2;SDS_P1;SDS_P2;PMS_P1;PMS_P2;Temp;Humidity;BMP_temperature;BMP_pressure;BME280_temperature;BME280_humidity;BME280_pressure;Samples;Min_cycle;Max_cycle;Signal;HPM_P1;HPM_P2
2022/03/04 00:00:34;;;;;;;18.02;9.93;;;;;;;;;;4985595;28;20046;-90
2022/03/04 00:03:03;;;;;;;17.30;9.93;;;;;;;;;;4988732;28;20472;-91
2022/03/04 00:05:56;;;;;;;17.88;10.02;;;;;;;;;;4974550;28;20423;-93
2022/03/04 00:08:24;;;;;;;16.60;9.63;;;;;;;;;;4955801;28;20046;-90
2022/03/04 00:10:49;;;;;;;17.33;9.88;;;;;;;;;;4971086;28;20098;-93
2022/03/04 00:13:45;;;;;;;18.40;10.05;;;;;;;;;;4967576;28;20031;-93
2022/03/04 00:16:16;;;;;;;17.35;9.98;;;;;;;;;;4971164;28;20039;-94
2022/03/04 00:19:06;;;;;;;15.70;9.57;;;;;;;;;;4970084;28;20538;-90
2022/03/04 00:21:49;;;;;;;15.68;9.05;;;;;;;;;;4975735;28;20058;-93
2022/03/04 00:24:29;;;;;;;17.90;9.52;;;;;;;;;;4972947;28;20144;-90
2022/03/04 00:27:22;;;;;;;17.08;9.15;;;;;;;;;;4975012;28;20047;-94
2022/03/04 00:29:53;;;;;;;17.65;9.45;;;;;;;;;;4989440;28;20037;-91
2022/03/04 00:32:22;;;;;;;16.20;8.93;;;;;;;;;;4984765;28;20518;-91
2022/03/04 00:34:52;;;;;;;16.50;10.02;;;;;;;;;;4974178;28;20159;-91
2022/03/04 00:37:54;;;;;;;17.00;9.52;;;;;;;;;;4987566;28;20034;-93
2022/03/04 00:40:55;;;;;;;16.45;9.48;;;;;;;;;;4971801;28;20102;-92
2022/03/04 00:46:25;;;;;;;16.38;9.45;;;;;;;;;;4971091;28;20376;-92
2022/03/04 00:48:51;;;;;;;15.75;8.80;;;;;;;;;;4984765;28;20046;-92
2022/03/04 00:51:56;;;;;;;16.25;9.32;;;;;;;;;;4985605;28;20365;-94
2022/03/04 00:54:42;;;;;;;17.25;9.55;;;;;;;;;;4990256;28;20452;-92
2022/03/04 00:57:34;;;;;;;15.57;9.20;;;;;;;;;;4968073;28;20039;-92
2022/03/04 01:00:11;;;;;;;16.75;9.05;;;;;;;;;;4987293;28;20450;-93
2022/03/04 01:05:58;;;;;;;16.52;9.65;;;;;;;;;;4970579;28;20045;-92
2022/03/04 01:08:27;;;;;;;15.88;9.23;;;;;;;;;;4968242;28;20474;-89
2022/03/04 01:10:58;;;;;;;17.35;8.98;;;;;;;;;;4973820;28;20026;-90
2022/03/04 01:13:29;;;;;;;17.60;9.80;;;;;;;;;;4968358;28;20027;-89
2022/03/04 01:16:00;;;;;;;16.38;9.27;;;;;;;;;;4979934;28;20031;-91
2022/03/04 01:18:26;;;;;;;18.58;9.90;;;;;;;;;;4970979;28;20387;-89
2022/03/04 01:20:55;;;;;;;16.98;10.00;;;;;;;;;;4975313;28;20043;-92
2022/03/04 01:23:23;;;;;;;17.83;10.60;;;;;;;;;;4990438;28;20166;-89
2022/03/04 01:25:52;;;;;;;17.98;10.10;;;;;;;;;;4971124;28;20121;-89
2022/03/04 01:28:20;;;;;;;18.15;9.93;;;;;;;;;;4982709;28;20118;-92
2022/03/04 01:30:49;;;;;;;18.25;9.90;;;;;;;;;;4988859;28;20034;-90
2022/03/04 01:33:18;;;;;;;16.08;9.15;;;;;;;;;;4983413;28;20625;-89
2022/03/04 01:35:52;;;;;;;17.95;10.50;;;;;;;;;;4967792;28;20032;-91
2022/03/04 01:38:20;;;;;;;17.60;10.35;;;;;;;;;;4964168;28;20046;-92
2022/03/04 01:40:52;;;;;;;16.13;9.68;;;;;;;;;;4983746;28;20082;-91
2022/03/04 01:43:23;;;;;;;16.92;9.95;;;;;;;;;;4980254;28;20567;-89
2022/03/04 01:45:52;;;;;;;18.02;10.00;;;;;;;;;;4988813;28;20613;-89
2022/03/04 01:48:22;;;;;;;15.40;9.32;;;;;;;;;;4968656;28;20129;-93
2022/03/04 01:50:54;;;;;;;17.35;9.10;;;;;;;;;;4972317;28;20508;-89
2022/03/04 01:53:23;;;;;;;18.00;10.48;;;;;;;;;;4971269;28;20152;-90
2022/03/04 01:55:53;;;;;;;15.52;9.27;;;;;;;;;;4976362;28;20022;-92
2022/03/04 01:58:25;;;;;;;18.83;10.05;;;;;;;;;;4965696;28;20102;-90
2022/03/04 02:00:53;;;;;;;19.23;10.10;;;;;;;;;;4974162;28;20042;-89
2022/03/04 02:03:23;;;;;;;19.77;10.82;;;;;;;;;;4967190;28;20277;-88
2022/03/04 02:05:49;;;;;;;19.02;10.07;;;;;;;;;;4976106;28;20022;-92
2022/03/04 02:08:15;;;;;;;16.48;9.63;;;;;;;;;;4987645;28;20634;-88
2022/03/04 02:10:43;;;;;;;17.80;10.55;;;;;;;;;;4986037;28;20085;-90
2022/03/04 02:13:09;;;;;;;18.08;10.07;;;;;;;;;;4986916;28;20042;-88
2022/03/04 02:15:37;;;;;;;17.75;10.50;;;;;;;;;;4972524;28;20395;-89
2022/03/04 02:18:15;;;;;;;16.83;9.70;;;;;;;;;;4967893;28;20113;-89
2022/03/04 02:20:48;;;;;;;16.98;9.75;;;;;;;;;;4968450;28;20373;-90
2022/03/04 02:23:21;;;;;;;18.08;9.93;;;;;;;;;;4969535;28;20066;-91
2022/03/04 02:25:51;;;;;;;18.13;9.65;;;;;;;;;;4986477;28;20058;-88
2022/03/04 02:28:27;;;;;;;19.02;10.02;;;;;;;;;;4970206;28;20065;-91
2022/03/04 02:30:55;;;;;;;18.63;10.75;;;;;;;;;;4971108;28;20042;-89
2022/03/04 02:33:32;;;;;;;19.35;10.65;;;;;;;;;;4969264;28;20703;-87
2022/03/04 02:36:03;;;;;;;18.65;9.70;;;;;;;;;;4986828;28;20476;-88
2022/03/04 02:38:34;;;;;;;19.35;10.20;;;;;;;;;;4987463;28;20026;-91
2022/03/04 02:41:05;;;;;;;20.27;10.70;;;;;;;;;;4972222;28;20093;-91
2022/03/04 02:43:31;;;;;;;17.75;9.15;;;;;;;;;;4967983;28;20035;-91
2022/03/04 02:46:00;;;;;;;18.08;10.35;;;;;;;;;;4970031;28;20025;-87
2022/03/04 02:48:37;;;;;;;18.40;10.32;;;;;;;;;;4985656;28;20046;-92
2022/03/04 02:51:08;;;;;;;18.98;10.35;;;;;;;;;;4970886;28;20062;-91
2022/03/04 02:54:15;;;;;;;18.35;10.30;;;;;;;;;;4969045;28;20041;-92
2022/03/04 02:56:43;;;;;;;18.70;10.38;;;;;;;;;;4974403;28;20046;-90
2022/03/04 02:59:16;;;;;;;18.83;10.25;;;;;;;;;;4984746;28;20492;-92
2022/03/04 03:01:55;;;;;;;;;;;;;;;;;;4971729;28;20022;-89
2022/03/04 03:05:18;;;;;;;;;;;;;;;;;;;;;
2022/03/04 03:12:28;;;;;;;;;;;;;;;;;;;;;
2022/03/04 03:18:59;;;;;;;;;;;;;;;;;;;;;
2022/03/04 03:22:32;;;;;;;20.35;10.93;;;;;;;;;;4932680;29;20086;-92
2022/03/04 03:28:31;;;;;;;18.38;10.18;;;;;;;;;;4857566;29;20041;-93
2022/03/04 03:32:10;;;;;;;19.08;10.57;;;;;;;;;;4848872;29;20033;-91
2022/03/04 03:39:21;;;;;;;18.33;9.50;;;;;;;;;;4789893;29;20053;-94
2022/03/04 03:49:23;;;;;;;19.03;10.03;;;;;;;;;;4822963;29;20056;-91
2022/03/04 03:55:41;;;;;;;20.35;10.63;;;;;;;;;;4877418;29;20073;-90
2022/03/04 03:58:10;;;;;;;17.48;9.98;;;;;;;;;;4875564;29;20041;-91
2022/03/04 04:08:20;;;;;;;19.48;10.45;;;;;;;;;;4875124;29;20495;-92
2022/03/04 04:10:52;;;;;;;18.20;10.43;;;;;;;;;;4863531;29;20069;-89
2022/03/04 04:13:18;;;;;;;18.55;10.32;;;;;;;;;;4879398;29;20046;-88
2022/03/04 04:15:44;;;;;;;19.35;10.35;;;;;;;;;;4945840;28;20030;-91
2022/03/04 04:18:29;;;;;;;19.30;10.68;;;;;;;;;;4971042;28;20490;-89
2022/03/04 04:21:11;;;;;;;;;;;;;;;;;;;;;
2022/03/04 04:24:00;;;;;;;21.00;10.52;;;;;;;;;;4973596;28;20383;-88
2022/03/04 04:26:31;;;;;;;20.17;10.68;;;;;;;;;;4968502;28;20550;-91
2022/03/04 04:28:59;;;;;;;20.30;11.57;;;;;;;;;;4982571;28;20038;-89
2022/03/04 04:31:36;;;;;;;22.33;11.35;;;;;;;;;;4979442;28;20030;-90
2022/03/04 04:34:02;;;;;;;19.92;10.90;;;;;;;;;;4968273;28;20047;-89
2022/03/04 04:36:32;;;;;;;19.38;11.10;;;;;;;;;;4988306;28;20058;-93
2022/03/04 04:39:08;;;;;;;22.30;12.48;;;;;;;;;;4989860;28;20524;-89
2022/03/04 04:41:44;;;;;;;22.10;12.23;;;;;;;;;;4968124;28;20037;-90
2022/03/04 04:44:17;;;;;;;22.02;11.57;;;;;;;;;;4971675;28;20137;-90
2022/03/04 04:47:09;;;;;;;;;;;;;;;;;;;;;
2022/03/04 04:49:43;;;;;;;21.58;11.50;;;;;;;;;;4977936;28;20029;-93
2022/03/04 04:52:28;;;;;;;20.52;11.88;;;;;;;;;;4970096;28;20039;-92
2022/03/04 05:01:36;;;;;;;21.48;11.52;;;;;;;;;;4925068;29;20047;-92
2022/03/04 05:05:05;;;;;;;21.88;11.50;;;;;;;;;;4992350;28;20027;-92
2022/03/04 05:07:37;;;;;;;24.58;13.13;;;;;;;;;;4941992;28;20074;-91
2022/03/04 05:10:07;;;;;;;19.00;10.90;;;;;;;;;;4939108;29;20027;-91
2022/03/04 05:12:40;;;;;;;23.38;11.95;;;;;;;;;;4989118;28;20279;-90
2022/03/04 05:15:08;;;;;;;22.13;12.32;;;;;;;;;;4981466;28;20057;-90
2022/03/04 05:17:38;;;;;;;21.25;11.82;;;;;;;;;;4976386;28;20050;-91
2022/03/04 05:20:09;;;;;;;20.67;12.00;;;;;;;;;;4978615;28;20026;-91
2022/03/04 05:22:45;;;;;;;21.65;12.50;;;;;;;;;;4964455;28;20023;-92
2022/03/04 05:25:36;;;;;;;20.90;11.85;;;;;;;;;;4976485;28;20089;-89
2022/03/04 05:28:11;;;;;;;21.05;11.70;;;;;;;;;;4984354;28;20086;-90
2022/03/04 05:30:39;;;;;;;21.63;11.73;;;;;;;;;;4985896;28;20054;-92
2022/03/04 05:33:10;;;;;;;23.05;12.10;;;;;;;;;;4975026;28;20062;-89
2022/03/04 05:35:52;;;;;;;22.67;12.10;;;;;;;;;;4982424;28;20073;-89
2022/03/04 05:38:29;;;;;;;21.27;11.88;;;;;;;;;;4973228;28;20031;-92
2022/03/04 05:41:12;;;;;;;20.10;11.82;;;;;;;;;;4974012;28;20185;-90
2022/03/04 05:43:49;;;;;;;22.67;12.63;;;;;;;;;;4988803;28;20030;-89
2022/03/04 05:46:33;;;;;;;21.33;12.02;;;;;;;;;;4991123;28;20771;-89
2022/03/04 05:49:12;;;;;;;20.88;12.07;;;;;;;;;;4991519;28;20042;-90
2022/03/04 05:51:46;;;;;;;21.42;12.07;;;;;;;;;;4969157;28;20022;-93
2022/03/04 05:54:14;;;;;;;23.25;12.23;;;;;;;;;;4985763;28;20038;-90
2022/03/04 05:57:08;;;;;;;23.02;11.68;;;;;;;;;;4972725;28;20081;-90
2022/03/04 05:59:45;;;;;;;;;;;;;;;;;;4968196;28;20038;-90
2022/03/04 06:02:29;;;;;;;;;;;;;;;;;;;;;
2022/03/04 06:08:13;;;;;;;;;;;;;;;;;;;;;
2022/03/04 06:10:47;;;;;;;22.67;12.23;;;;;;;;;;4975017;28;20027;-90
2022/03/04 06:13:17;;;;;;;24.20;12.32;;;;;;;;;;4991043;28;20045;-92
2022/03/04 06:16:16;;;;;;;23.55;12.82;;;;;;;;;;4971239;28;20030;-91
2022/03/04 06:18:52;;;;;;;25.73;12.30;;;;;;;;;;4964414;28;20027;-93
2022/03/04 06:21:18;;;;;;;24.10;13.35;;;;;;;;;;4978439;28;20027;-92
2022/03/04 06:23:49;;;;;;;25.42;12.88;;;;;;;;;;4982347;28;21745;-90
2022/03/04 06:26:20;;;;;;;27.65;13.18;;;;;;;;;;4988946;28;20026;-90
2022/03/04 06:30:04;;;;;;;23.65;12.90;;;;;;;;;;4988139;28;20033;-89
2022/03/04 06:32:15;;;;;;;24.92;12.38;;;;;;;;;;4952791;28;20192;-92
2022/03/04 06:38:41;;;;;;;;;;;;;;;;;;;;;
2022/03/04 06:41:08;;;;;;;23.27;12.98;;;;;;;;;;4967046;28;20042;-93
2022/03/04 06:43:53;;;;;;;24.25;13.30;;;;;;;;;;4973842;28;20035;-93
2022/03/04 06:46:24;;;;;;;22.60;13.23;;;;;;;;;;4987142;28;20518;-89
2022/03/04 06:49:03;;;;;;;;;;;;;;;;;;;;;
2022/03/04 06:51:50;;;;;;;24.83;13.52;;;;;;;;;;4973507;28;20364;-91
2022/03/04 06:54:24;;;;;;;25.20;13.20;;;;;;;;;;4969812;28;20069;-91
2022/03/04 06:56:50;;;;;;;24.27;12.90;;;;;;;;;;4966040;28;20062;-90
2022/03/04 06:59:19;;;;;;;26.90;13.88;;;;;;;;;;4967597;28;20029;-91
2022/03/04 07:01:55;;;;;;;24.33;13.15;;;;;;;;;;4969410;28;21926;-92
2022/03/04 07:04:30;;;;;;;25.23;12.43;;;;;;;;;;4973210;28;20482;-88
2022/03/04 07:06:55;;;;;;;23.55;12.80;;;;;;;;;;4984098;28;20023;-88
2022/03/04 07:09:25;;;;;;;24.95;12.68;;;;;;;;;;4964226;28;20165;-92
2022/03/04 07:11:56;;;;;;;24.20;12.82;;;;;;;;;;4988684;28;20114;-89
2022/03/04 07:14:28;;;;;;;26.98;14.00;;;;;;;;;;4967110;28;20093;-90
2022/03/04 07:16:59;;;;;;;25.30;13.70;;;;;;;;;;4981268;28;20483;-90
2022/03/04 07:19:33;;;;;;;28.65;14.13;;;;;;;;;;4973641;28;20039;-89
2022/03/04 07:22:02;;;;;;;26.20;13.48;;;;;;;;;;4985681;28;20118;-90
2022/03/04 07:24:27;;;;;;;24.48;14.43;;;;;;;;;;4987350;28;20488;-88
2022/03/04 07:26:58;;;;;;;26.77;15.20;;;;;;;;;;4987407;28;20033;-92
2022/03/04 07:29:30;;;;;;;25.80;14.40;;;;;;;;;;4991683;28;20039;-89
2022/03/04 07:31:59;;;;;;;23.67;13.00;;;;;;;;;;4970591;28;20023;-89
2022/03/04 07:34:30;;;;;;;27.05;13.98;;;;;;;;;;4970911;28;20160;-90
2022/03/04 07:37:13;;;;;;;24.23;13.77;;;;;;;;;;4973139;28;20035;-88
2022/03/04 07:39:41;;;;;;;24.40;14.18;;;;;;;;;;4970961;28;20035;-89
2022/03/04 07:42:10;;;;;;;24.65;14.40;;;;;;;;;;4984728;28;20071;-90
2022/03/04 07:44:45;;;;;;;27.45;13.63;;;;;;;;;;4971661;28;20121;-87
2022/03/04 07:47:14;;;;;;;27.67;14.30;;;;;;;;;;4973944;28;20030;-88
2022/03/04 07:49:42;;;;;;;25.50;13.68;;;;;;;;;;4984651;28;20043;-88
2022/03/04 07:52:19;;;;;;;26.35;13.77;;;;;;;;;;4968770;28;20030;-88
2022/03/04 07:54:50;;;;;;;27.65;13.10;;;;;;;;;;4985877;28;20400;-89
2022/03/04 07:57:20;;;;;;;27.92;14.45;;;;;;;;;;4983394;28;20515;-88
2022/03/04 08:00:05;;;;;;;28.02;14.68;;;;;;;;;;4961350;28;20043;-89
2022/03/04 08:02:38;;;;;;;26.33;13.93;;;;;;;;;;4979124;28;20493;-89
2022/03/04 08:05:06;;;;;;;26.42;13.90;;;;;;;;;;4977923;28;20034;-90
2022/03/04 08:07:36;;;;;;;26.33;13.90;;;;;;;;;;4976634;28;20181;-89
2022/03/04 08:10:04;;;;;;;32.97;14.90;;;;;;;;;;4975028;28;20085;-91
2022/03/04 08:12:30;;;;;;;27.05;14.25;;;;;;;;;;4973180;28;20547;-88
2022/03/04 08:15:01;;;;;;;26.45;14.65;;;;;;;;;;4991553;28;20117;-90
2022/03/04 08:17:26;;;;;;;24.40;14.05;;;;;;;;;;4972432;28;20033;-88
2022/03/04 08:19:57;;;;;;;25.70;14.20;;;;;;;;;;4965371;28;20041;-90
2022/03/04 08:22:25;;;;;;;25.25;13.77;;;;;;;;;;4974480;28;20471;-88
2022/03/04 08:25:09;;;;;;;24.17;14.23;;;;;;;;;;4980622;28;20113;-90
2022/03/04 08:27:39;;;;;;;32.13;14.30;;;;;;;;;;4981446;28;20472;-88
2022/03/04 08:30:08;;;;;;;28.63;14.93;;;;;;;;;;4984800;28;20086;-91
2022/03/04 08:32:39;;;;;;;26.42;14.20;;;;;;;;;;4988577;28;20031;-88
2022/03/04 08:35:06;;;;;;;26.20;13.65;;;;;;;;;;4974734;28;20515;-89
2022/03/04 08:37:34;;;;;;;23.80;13.65;;;;;;;;;;4976078;28;20531;-89
2022/03/04 08:39:59;;;;;;;25.02;13.35;;;;;;;;;;4988653;28;20051;-87
2022/03/04 08:42:29;;;;;;;25.20;14.10;;;;;;;;;;4973651;28;20026;-87
2022/03/04 08:44:54;;;;;;;24.63;13.48;;;;;;;;;;4974426;28;20035;-88
2022/03/04 08:47:22;;;;;;;25.33;12.90;;;;;;;;;;4980738;28;20037;-89
2022/03/04 08:49:48;;;;;;;23.88;13.18;;;;;;;;;;4975365;28;20058;-89
2022/03/04 08:52:14;;;;;;;23.95;13.55;;;;;;;;;;4971489;28;20054;-90
2022/03/04 08:54:39;;;;;;;23.88;12.93;;;;;;;;;;4975424;28;20031;-89
2022/03/04 08:57:05;;;;;;;28.63;13.30;;;;;;;;;;4982053;28;20066;-91
2022/03/04 08:59:44;;;;;;;22.70;12.80;;;;;;;;;;4970683;28;20035;-90
2022/03/04 09:02:16;;;;;;;23.52;13.02;;;;;;;;;;4967570;28;20031;-88
2022/03/04 09:04:44;;;;;;;23.08;12.73;;;;;;;;;;4969278;28;20030;-87
2022/03/04 09:07:16;;;;;;;24.17;12.52;;;;;;;;;;4974716;28;20127;-88
2022/03/04 09:09:45;;;;;;;22.35;12.48;;;;;;;;;;4971409;28;20054;-87
2022/03/04 09:12:18;;;;;;;20.55;11.40;;;;;;;;;;4989082;28;20125;-89
2022/03/04 09:14:47;;;;;;;22.17;12.57;;;;;;;;;;4975308;28;20035;-90
2022/03/04 09:17:15;;;;;;;19.85;12.20;;;;;;;;;;4982308;28;20037;-87
2022/03/04 09:19:41;;;;;;;25.63;12.85;;;;;;;;;;4976947;28;20027;-87
2022/03/04 09:22:17;;;;;;;22.63;12.43;;;;;;;;;;4981999;28;20471;-90
2022/03/04 09:24:47;;;;;;;23.92;12.57;;;;;;;;;;4983268;28;20053;-90
2022/03/04 09:27:19;;;;;;;23.05;13.07;;;;;;;;;;4976794;28;20026;-88
2022/03/04 09:29:48;;;;;;;22.75;12.82;;;;;;;;;;4976286;28;20522;-89
2022/03/04 09:32:19;;;;;;;22.90;12.95;;;;;;;;;;4976122;28;20035;-87
2022/03/04 09:34:48;;;;;;;24.30;13.10;;;;;;;;;;4958830;28;20073;-90
2022/03/04 09:37:20;;;;;;;22.80;12.63;;;;;;;;;;4990080;28;20039;-90
2022/03/04 09:39:51;;;;;;;22.58;12.50;;;;;;;;;;4983634;28;20046;-90
2022/03/04 09:42:21;;;;;;;24.10;12.98;;;;;;;;;;4986091;28;20027;-87
2022/03/04 09:44:52;;;;;;;23.33;13.15;;;;;;;;;;4969236;28;20058;-90
2022/03/04 09:47:25;;;;;;;24.73;12.32;;;;;;;;;;4973898;28;20483;-91
2022/03/04 09:49:56;;;;;;;22.27;12.50;;;;;;;;;;4965215;28;20047;-88
2022/03/04 09:52:21;;;;;;;21.40;12.43;;;;;;;;;;4986159;28;20129;-91
2022/03/04 10:06:08;;;;;;;;;;;;;;;;;;;;;
2022/03/04 10:09:34;;;;;;;;;;;;;;;;;;;;;
2022/03/04 10:12:57;;;;;;;23.00;12.93;;;;;;;;;;4848819;29;20052;-91
2022/03/04 10:15:25;;;;;;;23.15;13.32;;;;;;;;;;4841841;29;20529;-89
2022/03/04 10:22:27;;;;;;;22.02;12.82;;;;;;;;;;4771568;29;20059;-92
2022/03/04 10:25:08;;;;;;;;;;;;;;;;;;;;;
2022/03/04 10:28:15;;;;;;;27.35;14.15;;;;;;;;;;4833938;29;20037;-91
2022/03/04 10:30:58;;;;;;;26.30;13.82;;;;;;;;;;4880854;29;20112;-89
2022/03/04 10:33:53;;;;;;;23.08;13.82;;;;;;;;;;4967253;28;20058;-91
2022/03/04 10:36:32;;;;;;;25.95;13.25;;;;;;;;;;4974404;28;20067;-92
2022/03/04 10:39:26;;;;;;;22.35;13.70;;;;;;;;;;4961719;28;20485;-90
2022/03/04 10:41:59;;;;;;;;;;;;;;;;;;4956293;28;20038;-91
2022/03/04 10:44:30;;;;;;;24.98;13.18;;;;;;;;;;4961095;28;19915;-90
2022/03/04 10:47:41;;;;;;;25.77;14.27;;;;;;;;;;4970991;28;20041;-90
2022/03/04 10:50:12;;;;;;;23.40;13.60;;;;;;;;;;4964164;28;20031;-92
2022/03/04 10:53:00;;;;;;;21.80;13.23;;;;;;;;;;4952754;28;20042;-92
2022/03/04 10:55:44;;;;;;;;;;;;;;;;;;;;;
2022/03/04 10:58:20;;;;;;;24.13;14.10;;;;;;;;;;4958443;28;20038;-89
2022/03/04 11:01:08;;;;;;;;;;;;;;;;;;;;;
2022/03/04 11:03:34;;;;;;;24.48;14.63;;;;;;;;;;4950967;28;20034;-91
2022/03/04 11:06:45;;;;;;;;;;;;;;;;;;;;;
2022/03/04 11:09:39;;;;;;;;;;;;;;;;;;;;;
2022/03/04 11:14:54;;;;;;;21.73;13.25;;;;;;;;;;4951345;28;20057;-91
2022/03/04 11:17:28;;;;;;;24.48;14.63;;;;;;;;;;4954577;28;20031;-90
2022/03/04 11:20:06;;;;;;;22.80;14.05;;;;;;;;;;4967416;28;20019;-90
2022/03/04 11:22:56;;;;;;;25.55;15.02;;;;;;;;;;4951637;28;20048;-93
2022/03/04 11:25:22;;;;;;;23.52;14.30;;;;;;;;;;4952417;28;20560;-88
2022/03/04 11:27:52;;;;;;;24.42;14.77;;;;;;;;;;4970101;28;20078;-86
2022/03/04 11:30:38;;;;;;;23.15;13.77;;;;;;;;;;4955534;28;20034;-89
2022/03/04 11:33:05;;;;;;;30.55;14.95;;;;;;;;;;4956792;28;20035;-89
2022/03/04 11:36:04;;;;;;;23.25;14.68;;;;;;;;;;4975330;28;20055;-89
2022/03/04 11:38:48;;;;;;;22.25;14.68;;;;;;;;;;4985646;28;20030;-90
2022/03/04 11:41:19;;;;;;;23.50;14.15;;;;;;;;;;4985974;28;20486;-86
2022/03/04 11:43:51;;;;;;;24.67;13.80;;;;;;;;;;4974109;28;20051;-91
2022/03/04 11:46:25;;;;;;;24.85;14.98;;;;;;;;;;4993706;28;20088;-89
2022/03/04 11:49:21;;;;;;;23.48;14.45;;;;;;;;;;4975525;28;20571;-88
2022/03/04 11:52:12;;;;;;;25.98;14.38;;;;;;;;;;4984096;28;20039;-88
2022/03/04 11:54:45;;;;;;;25.08;14.38;;;;;;;;;;4970756;28;20716;-89
2022/03/04 11:57:15;;;;;;;23.65;13.70;;;;;;;;;;4984660;28;20440;-90
2022/03/04 12:00:01;;;;;;;23.00;14.30;;;;;;;;;;4977743;28;20037;-90
2022/03/04 12:02:46;;;;;;;22.08;12.98;;;;;;;;;;4958676;28;20041;-87
2022/03/04 12:07:45;;;;;;;22.98;14.50;;;;;;;;;;4975989;28;20073;-87
2022/03/04 12:10:19;;;;;;;21.65;14.35;;;;;;;;;;4973435;28;20035;-87
2022/03/04 12:13:18;;;;;;;24.33;14.13;;;;;;;;;;4975294;28;20026;-89
2022/03/04 12:16:14;;;;;;;23.88;14.07;;;;;;;;;;4978657;28;20027;-86
2022/03/04 12:18:50;;;;;;;22.38;14.23;;;;;;;;;;4982817;28;20026;-89
2022/03/04 12:21:46;;;;;;;22.92;13.85;;;;;;;;;;4969857;28;20601;-89
2022/03/04 12:24:46;;;;;;;25.02;14.02;;;;;;;;;;4989580;28;20034;-86
2022/03/04 12:31:21;;;;;;;21.90;13.50;;;;;;;;;;4966881;28;20169;-87
2022/03/04 12:34:18;;;;;;;22.58;13.55;;;;;;;;;;4918566;29;20528;-87
2022/03/04 12:36:53;;;;;;;21.85;13.68;;;;;;;;;;4884835;29;20045;-86
2022/03/04 12:39:19;;;;;;;21.80;13.40;;;;;;;;;;4881885;29;20045;-87
2022/03/04 12:41:55;;;;;;;22.45;13.95;;;;;;;;;;4879325;29;20093;-86
2022/03/04 12:44:21;;;;;;;24.58;14.27;;;;;;;;;;4881924;29;20091;-87
2022/03/04 12:46:49;;;;;;;22.85;13.65;;;;;;;;;;4897978;29;20115;-89
2022/03/04 12:49:29;;;;;;;21.05;12.52;;;;;;;;;;4881753;29;20041;-87
2022/03/04 12:51:56;;;;;;;20.55;12.50;;;;;;;;;;4887662;29;20513;-88
2022/03/04 12:54:28;;;;;;;21.45;13.07;;;;;;;;;;4891976;29;20123;-87
2022/03/04 12:56:56;;;;;;;23.30;13.55;;;;;;;;;;4897306;29;20028;-88
2022/03/04 12:59:22;;;;;;;21.25;13.05;;;;;;;;;;4898455;29;20040;-87
2022/03/04 13:01:54;;;;;;;21.98;12.70;;;;;;;;;;4945813;28;20122;-86
2022/03/04 13:04:24;;;;;;;22.63;12.32;;;;;;;;;;4968864;28;20033;-90
2022/03/04 13:07:05;;;;;;;20.20;12.27;;;;;;;;;;4958512;28;20398;-90
2022/03/04 13:09:54;;;;;;;19.15;11.35;;;;;;;;;;4978311;28;20053;-86
2022/03/04 13:12:24;;;;;;;20.90;12.48;;;;;;;;;;4970057;28;20034;-86
2022/03/04 13:18:25;;;;;;;20.75;12.27;;;;;;;;;;4934323;28;20478;-86
2022/03/04 13:21:54;;;;;;;19.33;11.52;;;;;;;;;;4950855;28;20126;-87
2022/03/04 13:24:46;;;;;;;20.08;11.07;;;;;;;;;;4918182;28;20097;-87
2022/03/04 13:28:00;;;;;;;18.25;11.68;;;;;;;;;;4966326;28;20039;-89
2022/03/04 13:30:26;;;;;;;19.27;11.32;;;;;;;;;;4953173;28;20044;-88
2022/03/04 13:33:04;;;;;;;18.02;11.40;;;;;;;;;;4967437;28;20386;-88
2022/03/04 13:35:30;;;;;;;19.95;11.75;;;;;;;;;;4959614;28;20058;-87
2022/03/04 13:37:58;;;;;;;19.00;11.55;;;;;;;;;;4986847;28;20043;-89
2022/03/04 13:40:30;;;;;;;18.35;10.98;;;;;;;;;;4980183;28;20069;-86
2022/03/04 13:42:59;;;;;;;18.23;10.83;;;;;;;;;;4972231;28;20027;-88
2022/03/04 13:46:04;;;;;;;18.52;11.10;;;;;;;;;;4980697;28;20125;-87
2022/03/04 13:48:30;;;;;;;17.48;11.30;;;;;;;;;;4982641;28;20030;-88
2022/03/04 13:51:22;;;;;;;17.92;10.55;;;;;;;;;;4995056;28;20487;-89
2022/03/04 13:54:01;;;;;;;20.58;11.43;;;;;;;;;;4968689;28;20623;-87
2022/03/04 14:00:03;;;;;;;21.48;11.23;;;;;;;;;;4975665;28;20100;-88
2022/03/04 14:02:38;;;;;;;19.50;11.77;;;;;;;;;;4980584;28;20022;-90
2022/03/04 14:05:03;;;;;;;17.80;11.65;;;;;;;;;;4970267;28;20029;-86
2022/03/04 14:07:39;;;;;;;17.63;10.90;;;;;;;;;;4968048;28;20031;-87
2022/03/04 14:10:13;;;;;;;17.83;11.00;;;;;;;;;;4978349;28;20391;-89
2022/03/04 14:12:39;;;;;;;19.10;11.32;;;;;;;;;;4978624;28;20035;-88
2022/03/04 14:15:05;;;;;;;17.90;11.05;;;;;;;;;;4982001;28;20038;-86
2022/03/04 14:17:30;;;;;;;20.05;10.32;;;;;;;;;;4969783;28;20104;-89
2022/03/04 14:19:56;;;;;;;16.90;10.65;;;;;;;;;;4974227;28;20070;-88
2022/03/04 14:22:22;;;;;;;20.33;10.93;;;;;;;;;;4973072;28;20041;-86
2022/03/04 14:24:47;;;;;;;17.63;10.73;;;;;;;;;;4990224;28;20022;-89
2022/03/04 14:27:12;;;;;;;16.92;10.98;;;;;;;;;;4971456;28;20061;-89
2022/03/04 14:29:38;;;;;;;18.10;10.93;;;;;;;;;;4973454;28;20138;-86
2022/03/04 14:32:05;;;;;;;17.95;10.55;;;;;;;;;;4972685;28;20029;-85
2022/03/04 14:34:30;;;;;;;19.77;11.45;;;;;;;;;;4973625;28;20033;-89
2022/03/04 14:36:56;;;;;;;20.33;11.55;;;;;;;;;;4967574;28;20474;-89
2022/03/04 14:39:22;;;;;;;17.48;11.10;;;;;;;;;;4980079;28;20029;-87
2022/03/04 14:41:47;;;;;;;18.00;11.48;;;;;;;;;;4976264;28;20046;-89
2022/03/04 14:44:13;;;;;;;18.15;11.18;;;;;;;;;;4981589;28;20082;-86
2022/03/04 14:46:38;;;;;;;22.52;11.85;;;;;;;;;;4971695;28;20508;-88
2022/03/04 14:49:04;;;;;;;18.13;11.43;;;;;;;;;;4969699;28;20049;-86
2022/03/04 14:51:34;;;;;;;18.17;11.05;;;;;;;;;;4971621;28;20620;-87
2022/03/04 14:53:59;;;;;;;20.33;11.60;;;;;;;;;;4970231;28;20023;-86
2022/03/04 14:56:25;;;;;;;20.88;10.50;;;;;;;;;;4972303;28;20409;-87
2022/03/04 14:58:50;;;;;;;17.63;10.50;;;;;;;;;;4990886;28;20172;-89
2022/03/04 15:01:15;;;;;;;19.67;11.20;;;;;;;;;;4969817;28;20027;-88
2022/03/04 15:03:41;;;;;;;19.45;11.80;;;;;;;;;;4984270;28;20030;-86
2022/03/04 15:06:06;;;;;;;17.95;10.65;;;;;;;;;;4967190;28;20391;-85
2022/03/04 15:08:34;;;;;;;19.20;12.32;;;;;;;;;;4970219;28;20390;-86
2022/03/04 15:11:00;;;;;;;17.08;10.38;;;;;;;;;;4981423;28;20055;-88
2022/03/04 15:13:25;;;;;;;17.63;10.85;;;;;;;;;;4972423;28;20112;-87
2022/03/04 15:15:51;;;;;;;21.17;12.10;;;;;;;;;;4974043;28;20037;-87
2022/03/04 15:18:16;;;;;;;18.02;11.23;;;;;;;;;;4982695;28;20114;-89
2022/03/04 15:20:42;;;;;;;17.00;10.93;;;;;;;;;;4970638;28;20086;-85
2022/03/04 15:23:07;;;;;;;18.73;11.25;;;;;;;;;;4970282;28;20030;-85
2022/03/04 15:25:32;;;;;;;17.85;11.75;;;;;;;;;;4958226;28;20494;-88
2022/03/04 15:27:58;;;;;;;17.08;11.50;;;;;;;;;;4977358;28;20353;-88
2022/03/04 15:30:24;;;;;;;18.27;11.15;;;;;;;;;;4985876;28;20027;-88
2022/03/04 15:32:49;;;;;;;18.05;10.88;;;;;;;;;;4969463;28;20019;-85
2022/03/04 15:35:15;;;;;;;19.75;11.93;;;;;;;;;;4967075;28;20051;-88
2022/03/04 15:37:42;;;;;;;19.02;11.38;;;;;;;;;;4977682;28;20131;-86
2022/03/04 15:40:10;;;;;;;19.13;10.57;;;;;;;;;;4973011;28;20518;-85
2022/03/04 15:42:39;;;;;;;17.42;11.88;;;;;;;;;;4976513;28;20027;-89
2022/03/04 15:45:05;;;;;;;19.73;11.57;;;;;;;;;;4990464;28;20477;-85
2022/03/04 15:47:31;;;;;;;20.17;11.70;;;;;;;;;;4986569;28;20026;-88
2022/03/04 15:49:57;;;;;;;18.65;11.27;;;;;;;;;;4972877;28;20117;-87
2022/03/04 15:52:22;;;;;;;20.48;11.88;;;;;;;;;;4962116;28;20157;-87
2022/03/04 15:54:48;;;;;;;20.40;12.73;;;;;;;;;;4976140;28;20114;-87
2022/03/04 15:57:14;;;;;;;20.48;11.50;;;;;;;;;;4970383;28;20031;-87
2022/03/04 15:59:40;;;;;;;17.58;11.18;;;;;;;;;;4985527;28;20043;-88
2022/03/04 16:02:05;;;;;;;19.70;11.10;;;;;;;;;;4977108;28;20026;-86
2022/03/04 16:04:31;;;;;;;21.85;11.48;;;;;;;;;;4975934;28;20037;-86
2022/03/04 16:06:56;;;;;;;18.00;11.07;;;;;;;;;;4979991;28;20058;-85
2022/03/04 16:09:25;;;;;;;19.35;11.00;;;;;;;;;;4976491;28;20498;-87
2022/03/04 16:11:53;;;;;;;16.63;9.93;;;;;;;;;;4971715;28;20062;-87
2022/03/04 16:14:18;;;;;;;17.55;10.45;;;;;;;;;;4966783;28;20029;-87
2022/03/04 16:16:44;;;;;;;17.33;10.43;;;;;;;;;;4976073;28;20430;-85
2022/03/04 16:19:09;;;;;;;17.60;10.43;;;;;;;;;;4977402;28;20031;-89
2022/03/04 16:21:35;;;;;;;21.20;10.13;;;;;;;;;;4965627;28;20029;-85
2022/03/04 16:24:01;;;;;;;17.58;9.73;;;;;;;;;;4973419;28;20035;-86
2022/03/04 16:26:27;;;;;;;19.00;9.95;;;;;;;;;;4972388;28;20038;-87
2022/03/04 16:28:56;;;;;;;18.95;10.18;;;;;;;;;;4975839;28;20460;-88
2022/03/04 16:31:24;;;;;;;17.67;10.10;;;;;;;;;;4985716;28;20038;-85
2022/03/04 16:33:57;;;;;;;18.08;9.77;;;;;;;;;;4973582;28;20027;-85
2022/03/04 16:36:26;;;;;;;17.20;9.70;;;;;;;;;;4976927;28;20046;-86
2022/03/04 16:38:58;;;;;;;18.38;10.32;;;;;;;;;;4981535;28;20507;-85
2022/03/04 16:41:26;;;;;;;19.08;10.45;;;;;;;;;;4977472;28;22958;-87
2022/03/04 16:43:58;;;;;;;14.60;9.07;;;;;;;;;;4989685;28;20479;-86
2022/03/04 16:46:31;;;;;;;19.10;9.82;;;;;;;;;;4968150;28;20042;-87